createdAt,value
2023-03-17T00:01:18.178Z,6.80
2023-03-17T00:03:45.707Z,6.80
2023-03-17T00:06:25.168Z,6.80
2023-03-17T00:08:51.962Z,6.80
2023-03-17T00:11:19.880Z,6.80
2023-03-17T00:13:46.832Z,6.80
2023-03-17T00:16:17.146Z,6.80
2023-03-17T00:18:44.729Z,6.80
2023-03-17T00:21:15.275Z,6.80
2023-03-17T00:23:44.843Z,6.70
2023-03-17T00:26:12.141Z,6.70
2023-03-17T00:28:40.526Z,6.70
2023-03-17T00:31:13.397Z,6.70
2023-03-17T00:33:40.571Z,6.70
2023-03-17T00:36:10.779Z,6.70
2023-03-17T00:38:39.704Z,6.60
2023-03-17T00:41:08.294Z,6.60
2023-03-17T00:43:35.097Z,6.60
2023-03-17T00:46:01.925Z,6.60
2023-03-17T00:48:29.934Z,6.60
2023-03-17T00:50:56.798Z,6.60
2023-03-17T00:53:23.761Z,6.60
2023-03-17T00:55:50.794Z,6.60
2023-03-17T00:58:29.089Z,6.60
2023-03-17T01:00:56.251Z,6.50
2023-03-17T01:03:23.303Z,6.50
2023-03-17T01:05:51.522Z,6.50
2023-03-17T01:08:18.637Z,6.50
2023-03-17T01:10:45.453Z,6.50
2023-03-17T01:13:13.001Z,6.40
2023-03-17T01:15:47.043Z,6.40
2023-03-17T01:18:15.957Z,6.40
2023-03-17T01:20:43.167Z,6.40
2023-03-17T01:23:10.665Z,6.40
2023-03-17T01:25:38.554Z,6.40
2023-03-17T01:28:08.907Z,6.30
2023-03-17T01:30:39.822Z,6.30
2023-03-17T01:33:08.505Z,6.30
2023-03-17T01:35:36.797Z,6.30
2023-03-17T01:38:04.034Z,6.30
2023-03-17T01:40:32.753Z,6.30
2023-03-17T01:43:03.103Z,6.30
2023-03-17T01:45:49.167Z,6.30
2023-03-17T01:48:17.362Z,6.20
2023-03-17T01:50:45.996Z,6.20
2023-03-17T01:53:14.003Z,6.20
2023-03-17T01:55:41.830Z,6.20
2023-03-17T01:58:09.455Z,6.20
2023-03-17T02:00:38.122Z,6.20
2023-03-17T02:03:06.046Z,6.20
2023-03-17T02:05:33.395Z,6.20
2023-03-17T02:08:00.327Z,6.10
2023-03-17T02:10:29.861Z,6.10
2023-03-17T02:12:58.709Z,6.20
2023-03-17T02:15:35.711Z,6.10
2023-03-17T02:18:02.582Z,6.20
2023-03-17T02:20:29.747Z,6.20
2023-03-17T02:22:57.413Z,6.10
2023-03-17T02:25:25.053Z,6.10
2023-03-17T02:27:54.108Z,6.10
2023-03-17T02:30:22.552Z,6.10
2023-03-17T02:32:49.555Z,6.10
2023-03-17T02:35:17.236Z,6.00
2023-03-17T02:37:44.041Z,6.00
2023-03-17T02:40:11.448Z,6.00
2023-03-17T02:42:39.436Z,6.00
2023-03-17T02:45:07.295Z,6.00
2023-03-17T02:47:34.094Z,6.00
2023-03-17T02:50:01.206Z,6.00
2023-03-17T02:52:28.020Z,6.00
2023-03-17T02:54:55.673Z,5.90
2023-03-17T02:57:22.464Z,5.90
2023-03-17T02:59:49.457Z,5.90
2023-03-17T03:02:16.896Z,5.90
2023-03-17T03:04:44.586Z,5.90
2023-03-17T03:07:12.045Z,5.90
2023-03-17T03:09:38.949Z,5.90
2023-03-17T03:12:06.039Z,5.90
2023-03-17T03:14:32.840Z,5.80
2023-03-17T03:16:59.654Z,5.80
2023-03-17T03:19:26.520Z,5.80
2023-03-17T03:21:53.303Z,5.80
2023-03-17T03:24:20.103Z,5.80
2023-03-17T03:26:46.940Z,5.80
2023-03-17T03:29:13.785Z,5.80
2023-03-17T03:31:40.628Z,5.80
2023-03-17T03:34:07.474Z,5.80
2023-03-17T03:36:34.281Z,5.70
2023-03-17T03:39:01.216Z,5.80
2023-03-17T03:41:28.014Z,5.80
2023-03-17T03:43:54.865Z,5.70
2023-03-17T03:46:21.833Z,5.70
2023-03-17T03:48:48.684Z,5.70
2023-03-17T03:51:15.782Z,5.70
2023-03-17T03:53:42.629Z,5.70
2023-03-17T03:56:09.476Z,5.70
2023-03-17T03:58:36.327Z,5.70
2023-03-17T04:01:06.374Z,5.70
2023-03-17T04:03:33.313Z,5.70
2023-03-17T04:06:00.217Z,5.60
2023-03-17T04:08:27.242Z,5.70
2023-03-17T04:10:54.072Z,5.70
2023-03-17T04:13:20.867Z,5.70
2023-03-17T04:15:47.835Z,5.70
2023-03-17T04:18:14.696Z,5.70
2023-03-17T04:20:41.647Z,5.70
2023-03-17T04:23:08.468Z,5.70
2023-03-17T04:25:35.372Z,5.70
2023-03-17T04:28:02.219Z,5.70
2023-03-17T04:30:29.410Z,5.70
2023-03-17T04:32:56.360Z,5.70
2023-03-17T04:35:23.158Z,5.70
2023-03-17T04:37:50.964Z,5.70
2023-03-17T04:40:18.320Z,5.70
2023-03-17T04:42:45.478Z,5.70
2023-03-17T04:45:12.884Z,5.70
2023-03-17T04:47:39.723Z,5.70
2023-03-17T04:50:08.920Z,5.70
2023-03-17T04:52:36.818Z,5.70
2023-03-17T04:55:04.197Z,5.60
2023-03-17T04:57:31.072Z,5.70
2023-03-17T04:59:57.918Z,5.60
2023-03-17T05:02:24.790Z,5.60
2023-03-17T05:04:51.799Z,5.60
2023-03-17T05:07:18.619Z,5.60
2023-03-17T05:09:45.425Z,5.60
2023-03-17T05:12:13.049Z,5.60
2023-03-17T05:14:39.847Z,5.60
2023-03-17T05:17:07.271Z,5.60
2023-03-17T05:19:34.036Z,5.60
2023-03-17T05:22:01.061Z,5.60
2023-03-17T05:24:27.862Z,5.60
2023-03-17T05:26:54.679Z,5.60
2023-03-17T05:29:21.502Z,5.60
2023-03-17T05:31:48.438Z,5.60
2023-03-17T05:34:16.031Z,5.70
2023-03-17T05:36:43.591Z,5.70
2023-03-17T05:39:10.740Z,5.80
2023-03-17T05:41:38.361Z,5.80
2023-03-17T05:44:05.281Z,5.80
2023-03-17T05:46:32.158Z,5.90
2023-03-17T05:48:59.012Z,6.00
2023-03-17T05:51:27.565Z,6.10
2023-03-17T05:53:54.433Z,6.20
2023-03-17T05:56:21.954Z,6.30
2023-03-17T05:58:48.913Z,6.40
2023-03-17T06:01:15.739Z,6.50
2023-03-17T06:03:42.746Z,6.60
2023-03-17T06:06:09.688Z,6.70
2023-03-17T06:08:36.533Z,6.80
2023-03-17T06:11:03.378Z,7.00
2023-03-17T06:13:30.381Z,7.10
2023-03-17T06:15:57.618Z,7.50
2023-03-17T06:18:24.513Z,7.90
2023-03-17T06:20:51.648Z,8.30
2023-03-17T06:23:18.917Z,8.70
2023-03-17T06:25:45.769Z,9.00
2023-03-17T06:28:13.412Z,9.40
2023-03-17T06:30:40.931Z,9.80
2023-03-17T06:33:08.355Z,10.20
2023-03-17T06:35:36.162Z,10.60
2023-03-17T06:38:03.546Z,11.00
2023-03-17T06:40:32.061Z,11.60
2023-03-17T06:42:59.463Z,12.20
2023-03-17T06:45:26.828Z,12.70
2023-03-17T06:47:53.852Z,12.80
2023-03-17T06:50:21.539Z,12.80
2023-03-17T06:52:48.726Z,12.70
2023-03-17T06:55:15.895Z,12.50
2023-03-17T06:57:43.342Z,12.70
2023-03-17T07:00:12.602Z,13.40
2023-03-17T07:02:39.816Z,14.50
2023-03-17T07:05:08.210Z,15.30
2023-03-17T07:07:35.768Z,16.30
2023-03-17T07:10:03.244Z,17.30
2023-03-17T07:12:30.288Z,18.30
2023-03-17T07:14:58.053Z,18.90
2023-03-17T07:17:25.468Z,19.20
2023-03-17T07:19:52.525Z,18.80
2023-03-17T07:22:19.557Z,17.90
2023-03-17T07:24:49.088Z,17.00
2023-03-17T07:27:16.731Z,16.20
2023-03-17T07:29:43.830Z,15.60
2023-03-17T07:32:11.421Z,15.40
2023-03-17T07:34:38.690Z,15.50
2023-03-17T07:37:06.992Z,15.80
2023-03-17T07:39:33.967Z,16.10
2023-03-17T07:42:00.954Z,16.80
2023-03-17T07:44:28.931Z,17.70
2023-03-17T07:46:56.607Z,18.60
2023-03-17T07:49:40.005Z,19.50
2023-03-17T07:52:09.004Z,20.50
2023-03-17T07:54:37.015Z,21.50
2023-03-17T07:57:04.217Z,22.30
2023-03-17T07:59:31.790Z,22.60
2023-03-17T08:02:00.238Z,23.20
2023-03-17T08:04:27.718Z,24.10
2023-03-17T08:06:54.672Z,24.90
2023-03-17T08:09:24.533Z,25.50
2023-03-17T08:11:51.644Z,26.10
2023-03-17T08:14:19.705Z,26.70
2023-03-17T08:16:46.621Z,26.90
2023-03-17T08:19:13.468Z,26.70
2023-03-17T08:21:40.313Z,26.20
2023-03-17T08:24:07.217Z,26.00
2023-03-17T08:26:34.234Z,25.70
2023-03-17T08:29:01.470Z,25.50
2023-03-17T08:31:28.756Z,25.40
2023-03-17T08:33:57.396Z,25.40
2023-03-17T08:36:24.597Z,25.30
2023-03-17T08:38:51.908Z,25.30
2023-03-17T08:41:20.796Z,25.60
2023-03-17T08:43:48.349Z,25.80
2023-03-17T08:46:23.105Z,26.00
2023-03-17T08:48:51.198Z,26.00
2023-03-17T08:51:24.469Z,25.80
2023-03-17T08:53:52.551Z,26.00
2023-03-17T08:56:19.863Z,26.20
2023-03-17T08:58:47.647Z,26.20
2023-03-17T09:01:15.353Z,25.80
2023-03-17T09:03:42.431Z,25.80
2023-03-17T09:06:11.626Z,25.90
2023-03-17T09:08:39.923Z,25.60
2023-03-17T09:11:08.430Z,25.60
2023-03-17T09:13:35.996Z,26.00
2023-03-17T09:16:02.887Z,26.00
2023-03-17T09:18:31.373Z,26.20
2023-03-17T09:20:58.174Z,26.60
2023-03-17T09:23:25.311Z,26.60
2023-03-17T09:25:52.694Z,26.40
2023-03-17T09:28:19.709Z,26.50
2023-03-17T09:30:46.690Z,26.30
2023-03-17T09:33:14.129Z,26.30
2023-03-17T09:35:41.514Z,26.30
2023-03-17T09:38:09.058Z,26.40
2023-03-17T09:40:39.137Z,26.80
2023-03-17T09:43:24.843Z,27.30
2023-03-17T09:45:52.377Z,27.50
2023-03-17T09:48:26.143Z,27.60
2023-03-17T09:50:55.808Z,27.40
2023-03-17T09:53:46.228Z,26.80
2023-03-17T09:56:14.269Z,26.50
2023-03-17T09:58:43.024Z,25.70
2023-03-17T10:01:10.518Z,25.20
2023-03-17T10:03:37.559Z,25.00
2023-03-17T10:06:15.165Z,25.10
2023-03-17T10:08:46.318Z,25.30
2023-03-17T10:11:14.955Z,25.90
2023-03-17T10:14:00.144Z,26.40
2023-03-17T10:16:42.611Z,26.50
2023-03-17T10:19:12.476Z,27.20
2023-03-17T10:21:46.459Z,27.90
2023-03-17T10:24:13.438Z,27.20
2023-03-17T10:26:43.442Z,26.90
2023-03-17T10:29:14.591Z,26.70
2023-03-17T10:31:41.579Z,26.70
2023-03-17T10:34:18.836Z,27.10
2023-03-17T10:37:05.834Z,27.20
2023-03-17T10:39:41.562Z,26.90
2023-03-17T10:42:11.291Z,27.00
2023-03-17T10:44:44.142Z,27.10
2023-03-17T10:47:25.127Z,27.50
2023-03-17T10:49:52.619Z,27.60
2023-03-17T10:52:23.686Z,27.70
2023-03-17T10:54:53.371Z,28.10
2023-03-17T10:57:20.785Z,28.00
2023-03-17T10:59:53.933Z,27.90
2023-03-17T11:02:26.035Z,28.00
2023-03-17T11:05:00.710Z,28.10
2023-03-17T11:07:31.344Z,27.50
2023-03-17T11:10:00.578Z,26.80
2023-03-17T11:12:29.012Z,26.20
2023-03-17T11:15:00.142Z,26.20
2023-03-17T11:17:39.024Z,26.50
2023-03-17T11:20:05.856Z,26.30
2023-03-17T11:22:32.582Z,26.20
2023-03-17T11:24:59.436Z,26.50
2023-03-17T11:27:31.042Z,26.80
2023-03-17T11:30:14.870Z,27.00
2023-03-17T11:32:45.576Z,27.00
2023-03-17T11:35:28.797Z,27.10
2023-03-17T11:38:04.750Z,26.90
2023-03-17T11:40:35.647Z,26.90
2023-03-17T11:43:28.371Z,26.50
2023-03-17T11:46:06.256Z,26.50
2023-03-17T11:48:41.812Z,26.90
2023-03-17T11:51:10.162Z,26.80
2023-03-17T11:53:49.406Z,26.80
2023-03-17T11:56:19.220Z,26.70
2023-03-17T11:58:54.636Z,26.70
2023-03-17T12:01:27.355Z,26.70
2023-03-17T12:04:16.702Z,27.10
2023-03-17T12:06:46.651Z,26.90
2023-03-17T12:09:26.050Z,26.50
2023-03-17T12:11:53.850Z,26.60
2023-03-17T12:14:33.722Z,26.60
2023-03-17T12:17:05.473Z,26.60
2023-03-17T12:19:38.221Z,26.20
2023-03-17T12:22:13.397Z,26.00
2023-03-17T12:24:43.899Z,26.00
2023-03-17T12:27:14.812Z,26.20
2023-03-17T12:29:43.254Z,26.30
2023-03-17T12:32:24.515Z,26.40
2023-03-17T12:34:51.925Z,26.80
2023-03-17T12:37:19.518Z,26.50
2023-03-17T12:39:54.844Z,26.40
2023-03-17T12:42:21.790Z,26.20
2023-03-17T12:44:48.670Z,26.60
2023-03-17T12:47:21.679Z,27.00
2023-03-17T12:50:07.085Z,27.00
2023-03-17T12:52:49.533Z,27.40
2023-03-17T12:55:17.643Z,27.10
2023-03-17T12:57:57.584Z,26.60
2023-03-17T13:00:25.603Z,26.30
2023-03-17T13:03:07.723Z,26.20
2023-03-17T13:05:37.291Z,26.70
2023-03-17T13:08:06.589Z,27.00
2023-03-17T13:10:43.635Z,27.10
2023-03-17T13:13:10.539Z,27.20
2023-03-17T13:15:38.615Z,27.10
2023-03-17T13:18:14.641Z,27.00
2023-03-17T13:20:43.261Z,26.30
2023-03-17T13:23:10.240Z,25.80
2023-03-17T13:25:41.422Z,25.00
2023-03-17T13:28:11.848Z,24.90
2023-03-17T13:30:39.058Z,25.10
2023-03-17T13:33:12.982Z,25.30
2023-03-17T13:35:46.717Z,24.90
2023-03-17T13:38:31.746Z,24.60
2023-03-17T13:41:09.534Z,24.60
2023-03-17T13:43:54.615Z,24.80
2023-03-17T13:46:25.472Z,25.10
2023-03-17T13:48:53.592Z,25.40
2023-03-17T13:51:32.022Z,25.60
2023-03-17T13:54:17.709Z,25.30
2023-03-17T13:56:45.334Z,24.90
2023-03-17T13:59:12.736Z,24.70
2023-03-17T14:01:57.798Z,24.60
2023-03-17T14:04:26.831Z,24.40
2023-03-17T14:06:55.181Z,24.40
2023-03-17T14:09:37.093Z,24.30
2023-03-17T14:12:07.209Z,24.60
2023-03-17T14:14:38.234Z,24.40
2023-03-17T14:17:23.981Z,24.30
2023-03-17T14:20:06.401Z,24.30
2023-03-17T14:22:33.507Z,24.40
2023-03-17T14:25:01.577Z,24.10
2023-03-17T14:27:31.428Z,23.40
2023-03-17T14:30:04.527Z,23.20
2023-03-17T14:32:31.373Z,23.20
2023-03-17T14:34:58.796Z,23.10
2023-03-17T14:37:26.805Z,22.60
2023-03-17T14:39:55.738Z,22.50
2023-03-17T14:42:30.616Z,22.30
2023-03-17T14:45:01.801Z,22.20
2023-03-17T14:47:29.184Z,21.80
2023-03-17T14:49:56.129Z,21.40
2023-03-17T14:52:28.089Z,21.20
2023-03-17T14:54:58.073Z,21.20
2023-03-17T14:57:31.380Z,21.20
2023-03-17T14:59:59.496Z,21.10
2023-03-17T15:02:49.088Z,21.00
2023-03-17T15:05:26.222Z,21.00
2023-03-17T15:07:53.170Z,20.90
2023-03-17T15:10:30.936Z,20.80
2023-03-17T15:13:02.322Z,20.70
2023-03-17T15:15:31.337Z,20.50
2023-03-17T15:17:59.254Z,20.20
2023-03-17T15:20:26.160Z,20.10
2023-03-17T15:22:56.094Z,20.00
2023-03-17T15:25:32.659Z,19.80
2023-03-17T15:27:59.500Z,19.40
2023-03-17T15:30:29.495Z,19.00
2023-03-17T15:33:00.774Z,18.80
2023-03-17T15:35:27.694Z,18.60
2023-03-17T15:37:54.890Z,18.50
2023-03-17T15:40:22.259Z,18.40
2023-03-17T15:42:49.333Z,18.20
2023-03-17T15:45:17.181Z,18.10
2023-03-17T15:47:45.143Z,18.00
2023-03-17T15:50:12.072Z,18.00
2023-03-17T15:52:38.940Z,17.80
2023-03-17T15:55:06.796Z,17.50
2023-03-17T15:57:33.605Z,17.30
2023-03-17T16:00:00.368Z,17.20
2023-03-17T16:02:27.571Z,17.00
2023-03-17T16:04:55.479Z,16.90
2023-03-17T16:07:23.252Z,16.70
2023-03-17T16:09:50.517Z,16.50
2023-03-17T16:12:17.670Z,16.30
2023-03-17T16:14:44.604Z,16.10
2023-03-17T16:17:18.401Z,15.90
2023-03-17T16:19:45.330Z,15.80
2023-03-17T16:22:30.635Z,15.60
2023-03-17T16:24:57.574Z,15.40
2023-03-17T16:27:24.722Z,15.30
2023-03-17T16:29:51.547Z,15.20
2023-03-17T16:32:18.479Z,15.10
2023-03-17T16:34:45.312Z,15.00
2023-03-17T16:37:15.781Z,14.90
2023-03-17T16:39:42.964Z,14.80
2023-03-17T16:42:20.882Z,14.70
2023-03-17T16:44:47.753Z,14.60
2023-03-17T16:47:14.865Z,14.50
2023-03-17T16:49:41.717Z,14.40
2023-03-17T16:52:08.992Z,14.30
2023-03-17T16:54:35.857Z,14.30
2023-03-17T16:57:02.644Z,14.20
2023-03-17T16:59:31.573Z,14.20
2023-03-17T17:01:58.519Z,14.10
2023-03-17T17:04:25.599Z,14.10
2023-03-17T17:06:52.715Z,14.00
2023-03-17T17:09:20.345Z,13.90
2023-03-17T17:11:47.158Z,13.70
2023-03-17T17:14:13.966Z,13.60
2023-03-17T17:16:40.977Z,13.50
2023-03-17T17:19:15.748Z,13.40
2023-03-17T17:21:42.989Z,13.30
2023-03-17T17:24:13.484Z,13.20
2023-03-17T17:26:40.777Z,13.10
2023-03-17T17:29:07.607Z,12.90
2023-03-17T17:31:34.461Z,12.80
2023-03-17T17:34:01.406Z,12.70
2023-03-17T17:36:28.326Z,12.60
2023-03-17T17:38:55.155Z,12.50
2023-03-17T17:41:22.099Z,12.40
2023-03-17T17:43:49.923Z,12.30
2023-03-17T17:46:18.489Z,12.20
2023-03-17T17:48:45.761Z,12.10
2023-03-17T17:51:12.624Z,12.00
2023-03-17T17:53:39.657Z,11.90
2023-03-17T17:56:06.844Z,11.90
2023-03-17T17:58:33.888Z,11.80
2023-03-17T18:01:01.027Z,11.70
2023-03-17T18:03:28.638Z,11.60
2023-03-17T18:05:57.035Z,11.60
2023-03-17T18:08:24.137Z,11.50
2023-03-17T18:10:52.211Z,11.40
2023-03-17T18:13:19.338Z,11.30
2023-03-17T18:15:46.172Z,11.30
2023-03-17T18:18:12.985Z,11.20
2023-03-17T18:20:40.171Z,11.20
2023-03-17T18:23:08.058Z,11.10
2023-03-17T18:25:34.975Z,11.10
2023-03-17T18:28:01.913Z,11.10
2023-03-17T18:30:30.434Z,11.10
2023-03-17T18:33:00.574Z,11.10
2023-03-17T18:35:27.818Z,11.10
2023-03-17T18:37:56.423Z,11.10
2023-03-17T18:40:23.879Z,11.10
2023-03-17T18:42:51.100Z,11.10
2023-03-17T18:45:18.078Z,11.10
2023-03-17T18:47:44.931Z,11.00
2023-03-17T18:50:12.748Z,11.00
2023-03-17T18:52:41.148Z,10.90
2023-03-17T18:55:08.762Z,10.90
2023-03-17T18:57:35.772Z,10.80
2023-03-17T19:00:02.743Z,10.80
2023-03-17T19:02:29.901Z,10.80
2023-03-17T19:04:57.618Z,10.80
2023-03-17T19:07:24.537Z,10.70
2023-03-17T19:09:51.408Z,10.70
2023-03-17T19:12:18.728Z,10.70
2023-03-17T19:14:45.578Z,10.70
2023-03-17T19:17:12.362Z,10.60
2023-03-17T19:19:40.642Z,10.60
2023-03-17T19:22:07.721Z,10.50
2023-03-17T19:24:35.476Z,10.50
2023-03-17T19:27:02.287Z,10.50
2023-03-17T19:29:29.432Z,10.40
2023-03-17T19:31:56.210Z,10.40
2023-03-17T19:34:23.311Z,10.40
2023-03-17T19:36:51.229Z,10.30
2023-03-17T19:39:18.556Z,10.30
2023-03-17T19:41:47.489Z,10.30
2023-03-17T19:44:14.563Z,10.20
2023-03-17T19:46:41.443Z,10.20
2023-03-17T19:49:08.293Z,10.20
2023-03-17T19:51:35.238Z,10.20
2023-03-17T19:54:02.221Z,10.10
2023-03-17T19:56:29.099Z,10.10
2023-03-17T19:58:56.015Z,10.00
2023-03-17T20:01:23.112Z,10.00
2023-03-17T20:03:50.407Z,10.00
2023-03-17T20:06:17.272Z,9.90
2023-03-17T20:08:44.489Z,9.90
2023-03-17T20:11:12.340Z,9.90
2023-03-17T20:13:39.729Z,9.90
2023-03-17T20:16:07.219Z,9.80
2023-03-17T20:18:34.252Z,9.80
2023-03-17T20:21:05.238Z,9.80
2023-03-17T20:23:32.171Z,9.70
2023-03-17T20:25:58.992Z,9.70
2023-03-17T20:28:26.590Z,9.70
2023-03-17T20:30:58.017Z,9.60
2023-03-17T20:33:25.114Z,9.60
2023-03-17T20:35:51.940Z,9.60
2023-03-17T20:38:19.522Z,9.60
2023-03-17T20:40:46.480Z,9.60
2023-03-17T20:43:13.284Z,9.50
2023-03-17T20:45:40.064Z,9.50
2023-03-17T20:48:10.587Z,9.50
2023-03-17T20:50:38.246Z,9.50
2023-03-17T20:53:05.110Z,9.50
2023-03-17T20:55:31.972Z,9.50
2023-03-17T20:57:59.890Z,9.40
2023-03-17T21:00:30.139Z,9.40
2023-03-17T21:02:57.228Z,9.40
2023-03-17T21:05:25.756Z,9.40
2023-03-17T21:07:52.731Z,9.40
2023-03-17T21:10:19.874Z,9.30
2023-03-17T21:12:47.064Z,9.30
2023-03-17T21:15:14.170Z,9.30
2023-03-17T21:17:42.333Z,9.30
2023-03-17T21:20:11.073Z,9.30
2023-03-17T21:22:38.003Z,9.30
2023-03-17T21:25:05.217Z,9.20
2023-03-17T21:27:32.031Z,9.20
2023-03-17T21:29:58.841Z,9.20
2023-03-17T21:32:25.805Z,9.20
2023-03-17T21:34:54.349Z,9.10
2023-03-17T21:37:21.391Z,9.10
2023-03-17T21:39:48.482Z,9.00
2023-03-17T21:42:15.397Z,9.00
2023-03-17T21:44:42.264Z,9.00
2023-03-17T21:47:09.068Z,8.90
2023-03-17T21:49:35.889Z,8.90
2023-03-17T21:52:03.205Z,8.90
2023-03-17T21:54:30.532Z,8.90
2023-03-17T21:56:58.283Z,8.90
2023-03-17T21:59:25.524Z,8.80
2023-03-17T22:01:53.256Z,8.80
2023-03-17T22:04:20.886Z,8.70
2023-03-17T22:06:48.130Z,8.70
2023-03-17T22:09:16.489Z,8.70
2023-03-17T22:11:44.989Z,8.60
2023-03-17T22:14:12.091Z,8.60
2023-03-17T22:16:39.068Z,8.60
2023-03-17T22:19:05.938Z,8.60
2023-03-17T22:21:32.732Z,8.60
2023-03-17T22:23:59.526Z,8.50
2023-03-17T22:26:26.617Z,8.50
2023-03-17T22:28:53.452Z,8.50
2023-03-17T22:31:21.843Z,8.40
2023-03-17T22:33:49.124Z,8.40
2023-03-17T22:36:16.080Z,8.30
2023-03-17T22:38:43.114Z,8.20
2023-03-17T22:41:12.573Z,8.20
2023-03-17T22:43:40.154Z,8.10
2023-03-17T22:46:07.548Z,8.10
2023-03-17T22:48:36.174Z,8.00
2023-03-17T22:51:06.489Z,8.00
2023-03-17T22:53:33.914Z,8.00
2023-03-17T22:56:00.916Z,7.90
2023-03-17T22:58:28.104Z,7.90
2023-03-17T23:00:56.274Z,7.80
2023-03-17T23:03:24.105Z,7.80
2023-03-17T23:05:52.754Z,7.70
2023-03-17T23:08:20.042Z,7.70
2023-03-17T23:10:48.018Z,7.60
2023-03-17T23:13:15.082Z,7.60
2023-03-17T23:15:41.955Z,7.60
2023-03-17T23:18:10.277Z,7.60
2023-03-17T23:20:38.078Z,7.60
2023-03-17T23:23:04.974Z,7.50
2023-03-17T23:25:31.776Z,7.50
2023-03-17T23:27:58.677Z,7.50
2023-03-17T23:30:25.983Z,7.40
2023-03-17T23:32:53.928Z,7.40
2023-03-17T23:35:21.146Z,7.40
2023-03-17T23:37:48.767Z,7.40
2023-03-17T23:40:17.194Z,7.40
2023-03-17T23:42:44.616Z,7.40
2023-03-17T23:45:11.884Z,7.40
2023-03-17T23:47:38.840Z,7.30
2023-03-17T23:50:05.957Z,7.30
2023-03-17T23:52:32.759Z,7.30
2023-03-17T23:55:01.048Z,7.30
2023-03-17T23:57:27.866Z,7.30
2023-03-17T23:59:54.712Z,7.30
